createdAt,value
2023-05-14T00:00:29.842Z,96817.28
2023-05-14T00:02:56.657Z,96810.31
2023-05-14T00:05:23.206Z,96811.03
2023-05-14T00:07:49.572Z,96810.84
2023-05-14T00:10:15.959Z,96807.34
2023-05-14T00:12:42.371Z,96809.53
2023-05-14T00:15:08.875Z,96809.56
2023-05-14T00:17:35.318Z,96802.84
2023-05-14T00:20:01.712Z,96800.16
2023-05-14T00:22:28.138Z,96798.31
2023-05-14T00:24:54.512Z,96796.16
2023-05-14T00:27:20.897Z,96796.72
2023-05-14T00:29:47.376Z,96791.63
2023-05-14T00:32:13.797Z,96781.94
2023-05-14T00:34:40.477Z,96783.28
2023-05-14T00:37:06.878Z,96784.91
2023-05-14T00:39:33.249Z,96779.53
2023-05-14T00:41:59.631Z,96769.88
2023-05-14T00:44:26.024Z,96779.53
2023-05-14T00:46:52.454Z,96777.13
2023-05-14T00:49:19.108Z,96774.97
2023-05-14T00:51:45.602Z,96769.59
2023-05-14T00:54:11.977Z,96769.09
2023-05-14T00:56:38.406Z,96765.59
2023-05-14T00:59:04.821Z,96766.66
2023-05-14T01:01:31.201Z,96772.25
2023-05-14T01:03:57.997Z,96756.44
2023-05-14T01:06:24.551Z,96753.75
2023-05-14T01:08:50.930Z,96759.63
2023-05-14T01:11:17.306Z,96758.56
2023-05-14T01:13:43.696Z,96761.91
2023-05-14T01:16:10.124Z,96757.97
2023-05-14T01:18:36.619Z,96755.59
2023-05-14T01:21:03.067Z,96755.78
2023-05-14T01:23:29.511Z,96758.44
2023-05-14T01:25:55.900Z,96752.47
2023-05-14T01:28:22.280Z,96746.34
2023-05-14T01:30:48.706Z,96754.44
2023-05-14T01:33:15.129Z,96753.13
2023-05-14T01:35:41.510Z,96746.72
2023-05-14T01:38:07.881Z,96747.50
2023-05-14T01:40:34.320Z,96750.19
2023-05-14T01:43:00.759Z,96752.81
2023-05-14T01:45:27.181Z,96755.25
2023-05-14T01:47:53.616Z,96746.94
2023-05-14T01:50:20.128Z,96746.13
2023-05-14T01:52:46.499Z,96740.22
2023-05-14T01:55:12.891Z,96744.03
2023-05-14T01:57:39.311Z,96748.59
2023-05-14T02:00:05.739Z,96736.50
2023-05-14T02:02:32.108Z,96750.47
2023-05-14T02:04:58.570Z,96750.75
2023-05-14T02:07:25.005Z,96747.53
2023-05-14T02:09:51.398Z,96747.25
2023-05-14T02:12:17.778Z,96745.66
2023-05-14T02:14:44.216Z,96742.44
2023-05-14T02:17:10.571Z,96749.69
2023-05-14T02:19:36.958Z,96749.13
2023-05-14T02:22:03.410Z,96745.38
2023-05-14T02:24:29.796Z,96741.88
2023-05-14T02:26:56.178Z,96736.00
2023-05-14T02:29:22.569Z,96740.00
2023-05-14T02:31:49.062Z,96737.88
2023-05-14T02:34:15.444Z,96733.03
2023-05-14T02:36:41.837Z,96729.03
2023-05-14T02:39:08.234Z,96730.91
2023-05-14T02:41:34.657Z,96733.84
2023-05-14T02:44:01.063Z,96734.63
2023-05-14T02:46:27.519Z,96732.78
2023-05-14T02:48:53.918Z,96736.50
2023-05-14T02:51:20.416Z,96734.38
2023-05-14T02:53:46.820Z,96731.44
2023-05-14T02:56:13.251Z,96726.31
2023-05-14T02:58:39.650Z,96734.91
2023-05-14T03:01:06.084Z,96741.59
2023-05-14T03:03:33.190Z,96736.75
2023-05-14T03:06:00.048Z,96733.56
2023-05-14T03:08:26.562Z,96731.09
2023-05-14T03:10:52.928Z,96727.41
2023-05-14T03:13:19.324Z,96729.50
2023-05-14T03:15:45.769Z,96730.06
2023-05-14T03:18:12.152Z,96722.03
2023-05-14T03:20:38.530Z,96733.28
2023-05-14T03:23:04.893Z,96728.16
2023-05-14T03:25:31.277Z,96721.22
2023-05-14T03:27:57.653Z,96722.53
2023-05-14T03:30:24.368Z,96726.81
2023-05-14T03:32:51.035Z,96730.06
2023-05-14T03:35:17.443Z,96733.22
2023-05-14T03:37:43.807Z,96731.63
2023-05-14T03:40:10.240Z,96731.88
2023-05-14T03:42:36.631Z,96724.91
2023-05-14T03:45:02.996Z,96730.69
2023-05-14T03:47:29.469Z,96735.81
2023-05-14T03:49:55.861Z,96730.19
2023-05-14T03:52:22.260Z,96730.44
2023-05-14T03:54:48.647Z,96732.09
2023-05-14T03:57:15.022Z,96719.25
2023-05-14T03:59:41.454Z,96730.00
2023-05-14T04:02:07.895Z,96729.75
2023-05-14T04:04:34.276Z,96729.72
2023-05-14T04:07:00.708Z,96718.47
2023-05-14T04:09:27.109Z,96724.91
2023-05-14T04:11:53.533Z,96721.41
2023-05-14T04:14:19.908Z,96715.00
2023-05-14T04:16:46.415Z,96724.91
2023-05-14T04:19:12.978Z,96717.72
2023-05-14T04:21:39.607Z,96724.06
2023-05-14T04:24:06.041Z,96716.88
2023-05-14T04:26:32.427Z,96720.13
2023-05-14T04:28:58.863Z,96720.38
2023-05-14T04:31:25.286Z,96723.59
2023-05-14T04:33:51.672Z,96722.22
2023-05-14T04:36:18.050Z,96727.88
2023-05-14T04:38:44.476Z,96732.97
2023-05-14T04:41:10.865Z,96735.97
2023-05-14T04:43:37.251Z,96731.50
2023-05-14T04:46:03.699Z,96742.81
2023-05-14T04:48:30.079Z,96746.81
2023-05-14T04:50:56.481Z,96744.97
2023-05-14T04:53:22.908Z,96739.03
2023-05-14T04:55:49.322Z,96740.66
2023-05-14T04:58:15.706Z,96742.28
2023-05-14T05:00:42.083Z,96736.41
2023-05-14T05:03:08.553Z,96737.97
2023-05-14T05:05:35.055Z,96745.50
2023-05-14T05:08:01.436Z,96750.91
2023-05-14T05:10:27.805Z,96748.19
2023-05-14T05:12:54.172Z,96749.03
2023-05-14T05:15:20.521Z,96745.53
2023-05-14T05:17:46.921Z,96747.16
2023-05-14T05:20:13.367Z,96746.03
2023-05-14T05:22:39.790Z,96751.97
2023-05-14T05:25:06.192Z,96754.53
2023-05-14T05:27:32.622Z,96749.16
2023-05-14T05:29:58.980Z,96756.72
2023-05-14T05:32:25.379Z,96754.63
2023-05-14T05:34:51.805Z,96753.84
2023-05-14T05:37:18.187Z,96753.59
2023-05-14T05:39:44.551Z,96756.53
2023-05-14T05:42:11.042Z,96759.88
2023-05-14T05:44:37.426Z,96767.19
2023-05-14T05:47:03.876Z,96766.88
2023-05-14T05:49:30.363Z,96759.88
2023-05-14T05:51:56.776Z,96771.72
2023-05-14T05:54:23.220Z,96761.75
2023-05-14T05:56:49.601Z,96760.16
2023-05-14T05:59:15.986Z,96759.34
2023-05-14T06:01:42.608Z,96759.84
2023-05-14T06:04:08.977Z,96760.72
2023-05-14T06:06:35.402Z,96759.09
2023-05-14T06:09:01.845Z,96758.13
2023-05-14T06:11:28.238Z,96756.75
2023-05-14T06:13:54.710Z,96758.97
2023-05-14T06:16:21.299Z,96756.28
2023-05-14T06:18:47.816Z,96755.78
2023-05-14T06:21:14.241Z,96759.84
2023-05-14T06:23:40.684Z,96759.56
2023-05-14T06:26:07.065Z,96747.28
2023-05-14T06:28:33.587Z,96755.91
2023-05-14T06:31:00.012Z,96763.94
2023-05-14T06:33:26.410Z,96769.03
2023-05-14T06:35:52.801Z,96761.00
2023-05-14T06:38:19.232Z,96760.75
2023-05-14T06:40:45.619Z,96759.41
2023-05-14T06:43:12.004Z,96751.13
2023-05-14T06:45:38.398Z,96755.41
2023-05-14T06:48:04.893Z,96757.06
2023-05-14T06:50:31.399Z,96759.69
2023-05-14T06:52:57.906Z,96758.63
2023-05-14T06:55:24.345Z,96765.00
2023-05-14T06:57:50.728Z,96763.97
2023-05-14T07:00:17.209Z,96760.22
2023-05-14T07:02:43.704Z,96769.13
2023-05-14T07:05:10.187Z,96762.66
2023-05-14T07:07:36.631Z,96758.66
2023-05-14T07:10:03.073Z,96762.16
2023-05-14T07:12:29.478Z,96763.25
2023-05-14T07:14:55.874Z,96765.38
2023-05-14T07:17:22.408Z,96761.88
2023-05-14T07:19:48.879Z,96760.50
2023-05-14T07:22:15.268Z,96760.50
2023-05-14T07:24:41.680Z,96758.59
2023-05-14T07:27:08.071Z,96767.25
2023-05-14T07:29:34.458Z,96759.47
2023-05-14T07:32:00.872Z,96755.13
2023-05-14T07:34:27.386Z,96755.69
2023-05-14T07:36:53.847Z,96758.38
2023-05-14T07:39:20.285Z,96760.47
2023-05-14T07:41:46.723Z,96754.53
2023-05-14T07:44:13.110Z,96755.59
2023-05-14T07:46:39.545Z,96763.72
2023-05-14T07:49:05.916Z,96750.22
2023-05-14T07:51:32.373Z,96761.56
2023-05-14T07:53:58.770Z,96755.06
2023-05-14T07:56:25.132Z,96749.94
2023-05-14T07:58:51.491Z,96753.44
2023-05-14T08:01:17.897Z,96758.16
2023-05-14T08:03:44.405Z,96755.19
2023-05-14T08:06:11.095Z,96751.41
2023-05-14T08:08:37.477Z,96758.88
2023-05-14T08:11:03.894Z,96748.63
2023-05-14T08:13:30.312Z,96751.09
2023-05-14T08:15:56.727Z,96749.47
2023-05-14T08:18:23.219Z,96752.25
2023-05-14T08:20:49.575Z,96744.16
2023-05-14T08:23:15.974Z,96748.78
2023-05-14T08:25:42.370Z,96748.94
2023-05-14T08:28:08.825Z,96745.72
2023-05-14T08:30:35.290Z,96742.44
2023-05-14T08:33:01.743Z,96739.41
2023-05-14T08:35:28.210Z,96740.16
2023-05-14T08:37:54.596Z,96741.66
2023-05-14T08:40:20.989Z,96735.81
2023-05-14T08:42:47.425Z,96730.78
2023-05-14T08:45:13.816Z,96737.34
2023-05-14T08:47:40.227Z,96735.00
2023-05-14T08:50:06.612Z,96732.97
2023-05-14T08:52:32.982Z,96728.53
2023-05-14T08:54:59.360Z,96728.19
2023-05-14T08:57:25.767Z,96731.53
2023-05-14T08:59:52.222Z,96731.63
2023-05-14T09:02:18.606Z,96728.78
2023-05-14T09:04:45.034Z,96734.72
2023-05-14T09:07:11.481Z,96733.16
2023-05-14T09:09:37.890Z,96733.78
2023-05-14T09:12:04.353Z,96727.91
2023-05-14T09:14:30.744Z,96729.72
2023-05-14T09:16:57.137Z,96723.66
2023-05-14T09:19:23.789Z,96719.78
2023-05-14T09:21:50.304Z,96726.94
2023-05-14T09:24:16.680Z,96719.50
2023-05-14T09:26:43.047Z,96723.66
2023-05-14T09:29:09.436Z,96729.09
2023-05-14T09:31:35.839Z,96723.69
2023-05-14T09:34:02.251Z,96726.03
2023-05-14T09:36:28.652Z,96726.09
2023-05-14T09:38:55.051Z,96719.66
2023-05-14T09:41:21.466Z,96729.72
2023-05-14T09:43:47.863Z,96727.13
2023-05-14T09:46:14.258Z,96720.34
2023-05-14T09:48:40.737Z,96722.75
2023-05-14T09:51:07.144Z,96715.91
2023-05-14T09:53:33.580Z,96719.78
2023-05-14T09:56:00.026Z,96715.03
2023-05-14T09:58:26.414Z,96726.81
2023-05-14T10:00:52.846Z,96721.47
2023-05-14T10:03:20.093Z,96712.78
2023-05-14T10:05:46.830Z,96713.81
2023-05-14T10:08:13.243Z,96707.88
2023-05-14T10:10:39.651Z,96712.94
2023-05-14T10:13:06.046Z,96708.31
2023-05-14T10:15:32.707Z,96702.56
2023-05-14T10:17:59.184Z,96701.59
2023-05-14T10:20:25.960Z,96699.31
2023-05-14T10:22:52.605Z,96698.16
2023-05-14T10:25:19.073Z,96699.78
2023-05-14T10:27:45.509Z,96696.56
2023-05-14T10:30:12.041Z,96689.22
2023-05-14T10:32:38.458Z,96691.44
2023-05-14T10:35:04.924Z,96687.63
2023-05-14T10:37:31.309Z,96682.06
2023-05-14T10:39:57.817Z,96688.91
2023-05-14T10:42:24.323Z,96694.06
2023-05-14T10:44:50.705Z,96677.09
2023-05-14T10:47:17.107Z,96680.38
2023-05-14T10:49:44.115Z,96681.03
2023-05-14T10:52:10.550Z,96675.91
2023-05-14T10:54:36.988Z,96672.81
2023-05-14T10:57:03.398Z,96672.34
2023-05-14T10:59:29.804Z,96674.47
2023-05-14T11:01:56.311Z,96664.56
2023-05-14T11:04:22.742Z,96671.97
2023-05-14T11:06:49.133Z,96660.38
2023-05-14T11:09:15.494Z,96659.28
2023-05-14T11:11:41.892Z,96655.94
2023-05-14T11:14:10.124Z,96653.41
2023-05-14T11:16:36.851Z,96656.88
2023-05-14T11:19:03.540Z,96651.13
2023-05-14T11:21:30.296Z,96654.28
2023-05-14T11:23:56.804Z,96640.25
2023-05-14T11:26:23.294Z,96641.44
2023-05-14T11:28:49.745Z,96641.16
2023-05-14T11:31:16.215Z,96647.72
2023-05-14T11:33:42.623Z,96634.34
2023-05-14T11:36:08.986Z,96634.78
2023-05-14T11:38:35.382Z,96630.53
2023-05-14T11:41:01.786Z,96643.38
2023-05-14T11:43:28.164Z,96637.00
2023-05-14T11:45:54.675Z,96633.59
2023-05-14T11:48:21.046Z,96628.47
2023-05-14T11:50:47.448Z,96624.03
2023-05-14T11:53:13.822Z,96628.31
2023-05-14T11:55:40.208Z,96624.19
2023-05-14T11:58:06.678Z,96619.28
2023-05-14T12:00:33.110Z,96620.19
2023-05-14T12:02:59.592Z,96614.13
2023-05-14T12:05:26.031Z,96619.75
2023-05-14T12:07:52.463Z,96607.59
2023-05-14T12:10:18.902Z,96606.81
2023-05-14T12:12:45.298Z,96606.75
2023-05-14T12:15:11.677Z,96600.53
2023-05-14T12:17:38.133Z,96600.44
2023-05-14T12:20:04.577Z,96597.25
2023-05-14T12:22:31.000Z,96607.88
2023-05-14T12:24:57.450Z,96596.13
2023-05-14T12:27:23.830Z,96604.06
2023-05-14T12:29:50.226Z,96609.50
2023-05-14T12:32:16.611Z,96599.69
2023-05-14T12:34:43.146Z,96606.41
2023-05-14T12:37:09.635Z,96589.31
2023-05-14T12:39:35.990Z,96610.31
2023-05-14T12:42:02.439Z,96603.09
2023-05-14T12:44:28.938Z,96594.25
2023-05-14T12:46:55.437Z,96599.38
2023-05-14T12:49:21.846Z,96601.72
2023-05-14T12:51:48.223Z,96595.28
2023-05-14T12:54:14.599Z,96593.66
2023-05-14T12:56:41.078Z,96588.34
2023-05-14T12:59:07.521Z,96591.31
2023-05-14T13:01:34.136Z,96586.13
2023-05-14T13:04:00.852Z,96592.22
2023-05-14T13:06:27.270Z,96591.56
2023-05-14T13:08:53.727Z,96605.28
2023-05-14T13:11:20.214Z,96598.84
2023-05-14T13:13:46.609Z,96613.97
2023-05-14T13:16:13.042Z,96622.47
2023-05-14T13:18:39.485Z,96625.50
2023-05-14T13:21:05.860Z,96608.97
2023-05-14T13:23:32.254Z,96613.34
2023-05-14T13:25:58.689Z,96605.63
2023-05-14T13:28:25.081Z,96609.75
2023-05-14T13:30:51.506Z,96605.19
2023-05-14T13:33:17.987Z,96601.31
2023-05-14T13:35:44.369Z,96601.06
2023-05-14T13:38:10.750Z,96593.38
2023-05-14T13:40:37.125Z,96601.28
2023-05-14T13:43:03.567Z,96586.59
2023-05-14T13:45:29.986Z,96596.06
2023-05-14T13:47:56.616Z,96588.56
2023-05-14T13:50:23.154Z,96589.19
2023-05-14T13:52:49.587Z,96589.22
2023-05-14T13:55:16.018Z,96586.50
2023-05-14T13:57:42.532Z,96584.50
2023-05-14T14:00:09.017Z,96574.72
2023-05-14T14:02:35.437Z,96585.00
2023-05-14T14:05:01.889Z,96571.13
2023-05-14T14:07:28.462Z,96575.97
2023-05-14T14:09:54.856Z,96571.94
2023-05-14T14:12:21.315Z,96571.53
2023-05-14T14:14:47.747Z,96565.69
2023-05-14T14:17:14.166Z,96563.53
2023-05-14T14:19:40.598Z,96563.09
2023-05-14T14:22:07.131Z,96556.91
2023-05-14T14:24:33.525Z,96559.63
2023-05-14T14:26:59.952Z,96556.78
2023-05-14T14:29:26.716Z,96560.16
2023-05-14T14:31:53.163Z,96562.84
2023-05-14T14:34:19.745Z,96571.81
2023-05-14T14:36:46.127Z,96564.22
2023-05-14T14:39:12.595Z,96562.06
2023-05-14T14:41:39.131Z,96557.31
2023-05-14T14:44:05.621Z,96554.53
2023-05-14T14:46:32.243Z,96561.56
2023-05-14T14:48:58.763Z,96562.22
2023-05-14T14:51:25.166Z,96567.19
2023-05-14T14:53:51.578Z,96565.13
2023-05-14T14:56:17.978Z,96560.28
2023-05-14T14:58:44.345Z,96571.16
2023-05-14T15:01:10.828Z,96570.66
2023-05-14T15:03:37.552Z,96572.19
2023-05-14T15:06:04.193Z,96561.75
2023-05-14T15:08:30.662Z,96560.56
2023-05-14T15:10:57.060Z,96554.41
2023-05-14T15:13:23.476Z,96559.28
2023-05-14T15:15:50.023Z,96547.78
2023-05-14T15:18:16.430Z,96553.22
2023-05-14T15:20:42.865Z,96550.66
2023-05-14T15:23:09.442Z,96548.78
2023-05-14T15:25:35.824Z,96552.00
2023-05-14T15:28:02.295Z,96565.28
2023-05-14T15:30:28.712Z,96568.06
2023-05-14T15:32:55.180Z,96566.53
2023-05-14T15:35:21.703Z,96570.34
2023-05-14T15:37:48.221Z,96580.00
2023-05-14T15:40:14.664Z,96573.88
2023-05-14T15:42:41.080Z,96575.09
2023-05-14T15:45:07.530Z,96576.38
2023-05-14T15:47:33.951Z,96580.19
2023-05-14T15:50:00.539Z,96570.91
2023-05-14T15:52:26.965Z,96571.31
2023-05-14T15:54:53.340Z,96578.84
2023-05-14T15:57:20.184Z,96585.41
2023-05-14T15:59:46.640Z,96585.41
2023-05-14T16:02:13.289Z,96585.47
2023-05-14T16:04:39.718Z,96587.78
2023-05-14T16:07:08.118Z,96579.03
2023-05-14T16:09:35.991Z,96569.97
2023-05-14T16:12:02.363Z,96562.91
2023-05-14T16:14:28.728Z,96560.94
2023-05-14T16:16:55.194Z,96550.75
2023-05-14T16:19:21.842Z,96551.16
2023-05-14T16:21:48.249Z,96546.31
2023-05-14T16:24:14.668Z,96550.78
2023-05-14T16:26:41.090Z,96545.03
2023-05-14T16:29:07.500Z,96556.25
2023-05-14T16:31:33.922Z,96557.53
2023-05-14T16:34:00.302Z,96564.50
2023-05-14T16:36:27.117Z,96574.50
2023-05-14T16:39:06.708Z,96568.31
2023-05-14T16:41:34.020Z,96566.69
2023-05-14T16:44:00.539Z,96574.69
2023-05-14T16:46:26.963Z,96565.59
2023-05-14T16:48:53.536Z,96567.13
2023-05-14T16:51:19.918Z,96555.38
2023-05-14T16:53:46.399Z,96555.88
2023-05-14T16:56:13.033Z,96567.44
2023-05-14T16:58:39.528Z,96565.50
2023-05-14T17:01:07.419Z,96575.66
2023-05-14T17:03:35.795Z,96576.66
2023-05-14T17:06:02.150Z,96576.78
2023-05-14T17:08:28.701Z,96575.47
2023-05-14T17:10:55.134Z,96577.03
2023-05-14T17:13:21.538Z,96575.84
2023-05-14T17:15:48.080Z,96577.19
2023-05-14T17:18:14.536Z,96582.56
2023-05-14T17:20:40.924Z,96588.38
2023-05-14T17:23:07.334Z,96590.25
2023-05-14T17:25:33.779Z,96587.28
2023-05-14T17:28:00.380Z,96586.84
2023-05-14T17:30:26.967Z,96590.91
2023-05-14T17:32:53.403Z,96585.91
2023-05-14T17:35:19.854Z,96593.59
2023-05-14T17:37:46.268Z,96594.69
2023-05-14T17:40:12.697Z,96592.09
2023-05-14T17:42:40.259Z,96599.84
2023-05-14T17:45:06.633Z,96594.66
2023-05-14T17:47:33.102Z,96600.53
2023-05-14T17:49:59.549Z,96605.88
2023-05-14T17:52:25.929Z,96598.19
2023-05-14T17:54:52.335Z,96609.13
2023-05-14T17:57:18.799Z,96609.13
2023-05-14T17:59:47.902Z,96605.44
2023-05-14T18:02:14.289Z,96619.94
2023-05-14T18:04:40.686Z,96615.88
2023-05-14T18:07:07.348Z,96618.28
2023-05-14T18:09:33.767Z,96609.84
2023-05-14T18:12:00.224Z,96612.56
2023-05-14T18:14:26.605Z,96619.22
2023-05-14T18:16:53.049Z,96614.88
2023-05-14T18:19:19.456Z,96611.22
2023-05-14T18:21:45.825Z,96616.09
2023-05-14T18:24:12.256Z,96618.50
2023-05-14T18:26:38.671Z,96621.16
2023-05-14T18:29:05.107Z,96621.56
2023-05-14T18:31:31.574Z,96629.50
2023-05-14T18:33:58.008Z,96621.59
2023-05-14T18:36:24.397Z,96627.69
2023-05-14T18:38:50.839Z,96628.72
2023-05-14T18:41:17.276Z,96624.31
2023-05-14T18:43:43.691Z,96623.97
2023-05-14T18:46:10.138Z,96634.00
2023-05-14T18:48:36.635Z,96627.75
2023-05-14T18:51:03.056Z,96631.94
2023-05-14T18:53:29.624Z,96635.88
2023-05-14T18:55:56.077Z,96641.47
2023-05-14T18:58:22.533Z,96648.00
2023-05-14T19:00:49.038Z,96654.69
2023-05-14T19:03:15.553Z,96658.03
2023-05-14T19:05:42.008Z,96655.91
2023-05-14T19:08:08.417Z,96656.97
2023-05-14T19:10:34.886Z,96663.06
2023-05-14T19:13:01.298Z,96665.94
2023-05-14T19:15:27.700Z,96666.34
2023-05-14T19:17:54.207Z,96678.25
2023-05-14T19:20:20.751Z,96675.88
2023-05-14T19:22:47.136Z,96676.63
2023-05-14T19:25:13.554Z,96674.72
2023-05-14T19:27:39.987Z,96693.59
2023-05-14T19:30:06.434Z,96692.78
2023-05-14T19:32:32.877Z,96699.25
2023-05-14T19:34:59.275Z,96716.22
2023-05-14T19:37:25.712Z,96717.56
2023-05-14T19:39:52.369Z,96721.94
2023-05-14T19:42:18.751Z,96724.16
2023-05-14T19:44:45.141Z,96731.66
2023-05-14T19:47:12.792Z,96730.44
2023-05-14T19:49:39.189Z,96740.66
2023-05-14T19:52:05.591Z,96751.13
2023-05-14T19:54:32.089Z,96757.06
2023-05-14T19:56:58.522Z,96772.50
2023-05-14T19:59:24.896Z,96782.75
2023-05-14T20:01:51.317Z,96776.97
2023-05-14T20:04:17.685Z,96779.59
2023-05-14T20:06:44.187Z,96793.25
2023-05-14T20:09:10.558Z,96796.41
2023-05-14T20:11:36.934Z,96797.63
2023-05-14T20:14:03.335Z,96794.75
2023-05-14T20:16:29.780Z,96805.22
2023-05-14T20:18:56.352Z,96814.34
2023-05-14T20:21:22.750Z,96819.06
2023-05-14T20:23:49.167Z,96815.91
2023-05-14T20:26:15.699Z,96817.19
2023-05-14T20:28:42.210Z,96806.22
2023-05-14T20:31:08.634Z,96805.41
2023-05-14T20:33:35.034Z,96808.25
2023-05-14T20:36:01.490Z,96801.84
2023-05-14T20:38:27.888Z,96804.69
2023-05-14T20:40:54.275Z,96792.59
2023-05-14T20:43:20.649Z,96800.50
2023-05-14T20:45:47.089Z,96793.41
2023-05-14T20:48:13.516Z,96794.03
2023-05-14T20:50:39.943Z,96791.78
2023-05-14T20:53:06.454Z,96798.03
2023-05-14T20:55:32.857Z,96795.88
2023-05-14T20:57:59.273Z,96794.06
2023-05-14T21:00:25.717Z,96790.66
2023-05-14T21:02:52.179Z,96785.88
2023-05-14T21:05:18.778Z,96785.34
2023-05-14T21:07:45.225Z,96783.13
2023-05-14T21:10:11.781Z,96779.56
2023-05-14T21:12:38.265Z,96775.25
2023-05-14T21:15:04.681Z,96773.38
2023-05-14T21:17:31.097Z,96764.84
2023-05-14T21:19:57.634Z,96768.56
2023-05-14T21:22:24.023Z,96772.91
2023-05-14T21:24:50.429Z,96770.53
2023-05-14T21:27:16.873Z,96769.94
2023-05-14T21:29:43.269Z,96765.63
2023-05-14T21:32:09.656Z,96767.03
2023-05-14T21:34:36.136Z,96764.31
2023-05-14T21:37:02.669Z,96765.63
2023-05-14T21:39:29.141Z,96770.41
2023-05-14T21:41:55.541Z,96757.28
2023-05-14T21:44:21.925Z,96765.69
2023-05-14T21:46:48.361Z,96764.53
2023-05-14T21:49:14.724Z,96766.53
2023-05-14T21:51:41.107Z,96762.66
2023-05-14T21:54:07.522Z,96765.19
2023-05-14T21:56:33.889Z,96762.78
2023-05-14T21:59:00.418Z,96750.41
2023-05-14T22:01:26.854Z,96757.84
2023-05-14T22:03:54.152Z,96756.72
2023-05-14T22:06:21.497Z,96758.06
2023-05-14T22:08:47.926Z,96750.13
2023-05-14T22:11:14.305Z,96754.63
2023-05-14T22:13:40.889Z,96757.00
2023-05-14T22:16:12.627Z,96754.81
2023-05-14T22:18:39.573Z,96754.88
2023-05-14T22:21:06.081Z,96750.72
2023-05-14T22:23:32.554Z,96742.34
2023-05-14T22:25:58.993Z,96741.69
2023-05-14T22:28:25.440Z,96748.44
2023-05-14T22:30:51.883Z,96741.91
2023-05-14T22:33:18.275Z,96746.63
2023-05-14T22:35:44.654Z,96740.81
2023-05-14T22:38:11.042Z,96746.22
2023-05-14T22:40:37.490Z,96746.81
2023-05-14T22:43:03.904Z,96740.41
2023-05-14T22:45:30.323Z,96737.75
2023-05-14T22:47:56.798Z,96740.50
2023-05-14T22:50:23.199Z,96731.09
2023-05-14T22:52:49.652Z,96730.59
2023-05-14T22:55:18.795Z,96730.41
2023-05-14T22:57:46.010Z,96722.25
2023-05-14T23:00:12.468Z,96729.13
2023-05-14T23:02:38.936Z,96727.06
2023-05-14T23:05:05.382Z,96728.91
2023-05-14T23:07:31.753Z,96727.59
2023-05-14T23:09:58.221Z,96726.81
2023-05-14T23:12:24.656Z,96732.72
2023-05-14T23:14:51.032Z,96724.59
2023-05-14T23:17:17.407Z,96726.22
2023-05-14T23:19:43.795Z,96720.94
2023-05-14T23:22:10.208Z,96729.84
2023-05-14T23:24:36.608Z,96721.97
2023-05-14T23:27:03.015Z,96718.44
2023-05-14T23:29:29.398Z,96725.72
2023-05-14T23:31:55.976Z,96720.22
2023-05-14T23:34:22.492Z,96714.94
2023-05-14T23:36:48.914Z,96714.97
2023-05-14T23:39:15.305Z,96715.44
2023-05-14T23:41:41.739Z,96712.41
2023-05-14T23:44:08.150Z,96715.41
2023-05-14T23:46:34.593Z,96715.19
2023-05-14T23:49:00.987Z,96722.19
2023-05-14T23:51:27.379Z,96722.84
2023-05-14T23:53:53.915Z,96723.13
2023-05-14T23:56:20.289Z,96717.84
2023-05-14T23:58:46.676Z,96711.75
